, TX

(GMT )
Ingleside

Weather History for KTFP - June, 2013

Change the Weather History Date:

Friday, June 28, 2013

  Actual Average Record
Temperature  
Mean Temperature 87 °F -  
Max Temperature 94 °F - - ()
Min Temperature 80 °F - - ()
Cooling Degree Days 22    
Growing Degree Days 37 (Base 50)    
Moisture  
Dew Point 75 °F    
Average Humidity 69    
Maximum Humidity 90    
Minimum Humidity 45    
Precipitation  
Precipitation 0.00 in - - ()
Sea Level Pressure  
Sea Level Pressure 29.91 in    
Wind  
Wind Speed 10 mph (South)    
Max Wind Speed 17 mph    
Max Gust Speed 23 mph    
Visibility 10 miles    
Events      
Averages and records for this station are not official NWS values.
T = Trace of Precipitation, MM = Missing Value Source: NWS Daily Summary

Daily Weather History Graph

Daily Weather History Graph

Search for Another Location

Airport or City:

Trip Planner

Search our weather history database for the weather conditions in past years. The results will help you decide how hot, cold, wet, or windy it might be!

Date:

Astronomy

Jun. 28, 2013 Rise Set
Actual Time 6:35 AM CDT 8:29 PM CDT
Civil Twilight 6:08 AM CDT 8:55 PM CDT
Nautical Twilight 5:36 AM CDT 9:27 PM CDT
Astronomical Twilight 5:02 AM CDT 10:01 PM CDT
Moon No Moon Rise 12:12 PM CDT (6/28)
Length of Visible Light 14h 47m
Length of Day
13h 53m
Waning Gibbous, 66% of the Moon is Illuminated
Jun 28
Waning Gibbous
Jun 29
Last Quarter
Jul 8
New
Jul 15
First Quarter
Jul 22
Full

Hourly Weather History & Observations

Time (CDT) Temp. Heat Index Dew Point Humidity Pressure Visibility Wind Dir Wind Speed Gust Speed Precip Events Conditions
12:15 AM 82.8 °F 92.9 °F 78.6 °F 87% 29.95 in 10.0 mi South 11.5 mph - N/A   Scattered Clouds
12:35 AM 82.4 °F 91.8 °F 78.3 °F 87% 29.95 in 10.0 mi South 9.2 mph - N/A   Scattered Clouds
12:55 AM 82.4 °F 91.8 °F 78.3 °F 87% 29.96 in 10.0 mi South 9.2 mph - N/A   Scattered Clouds
1:15 AM 82.4 °F 91.8 °F 78.3 °F 87% 29.97 in 10.0 mi South 9.2 mph - N/A   Scattered Clouds
1:35 AM 82.6 °F 92.3 °F 78.4 °F 87% 29.98 in 10.0 mi South 10.4 mph - N/A   Mostly Cloudy
1:55 AM 82.8 °F 92.6 °F 78.3 °F 86% 29.98 in 10.0 mi South 11.5 mph - N/A   Mostly Cloudy
2:15 AM 82.8 °F 92.6 °F 78.1 °F 86% 29.99 in 10.0 mi South 10.4 mph - N/A   Scattered Clouds
2:35 AM 82.6 °F 92.0 °F 77.9 °F 86% 29.98 in 10.0 mi South 11.5 mph - N/A   Scattered Clouds
2:55 AM 82.2 °F 90.7 °F 77.2 °F 85% 29.98 in 10.0 mi South 10.4 mph - N/A   Clear
3:15 AM 81.9 °F 89.5 °F 76.6 °F 84% 29.98 in 10.0 mi South 8.1 mph - N/A   Clear
3:35 AM 81.9 °F 89.7 °F 77.0 °F 85% 29.97 in 10.0 mi South 8.1 mph - N/A   Scattered Clouds
3:55 AM 81.5 °F 89.0 °F 77.0 °F 86% 29.97 in 10.0 mi South 9.2 mph - N/A   Scattered Clouds
4:15 AM 81.5 °F 89.2 °F 77.2 °F 87% 29.97 in 10.0 mi South 8.1 mph - N/A   Scattered Clouds
4:35 AM 81.5 °F 89.2 °F 77.4 °F 87% 29.97 in 10.0 mi South 8.1 mph - N/A   Scattered Clouds
4:55 AM 81.5 °F 89.2 °F 77.2 °F 87% 29.96 in 10.0 mi South 8.1 mph - N/A   Scattered Clouds
5:15 AM 81.5 °F 89.2 °F 77.4 °F 87% 29.96 in 10.0 mi South 8.1 mph - N/A   Scattered Clouds
5:35 AM 81.7 °F 89.7 °F 77.5 °F 87% 29.96 in 10.0 mi SSW 8.1 mph - N/A   Mostly Cloudy
5:55 AM 81.3 °F 89.0 °F 77.4 °F 88% 29.95 in 10.0 mi SSW 5.8 mph - N/A   Scattered Clouds
6:15 AM 80.6 °F 87.1 °F 77.2 °F 89% 29.94 in 10.0 mi SSW 8.1 mph - N/A   Clear
6:35 AM 80.4 °F 86.8 °F 77.2 °F 90% 29.94 in 10.0 mi SSW 6.9 mph - N/A   Scattered Clouds
6:55 AM 80.6 °F 87.1 °F 77.2 °F 89% 29.95 in 10.0 mi SSW 6.9 mph - N/A   Scattered Clouds
7:55 AM 83.5 °F 92.2 °F 76.3 °F 79% 29.95 in 10.0 mi SSW 8.1 mph - N/A   Clear
8:15 AM 84.6 °F 93.5 °F 75.7 °F 75% 29.95 in 10.0 mi South 8.1 mph - N/A   Clear
8:35 AM 85.8 °F 94.2 °F 74.7 °F 69% 29.96 in 10.0 mi SSW 8.1 mph - N/A   Clear
8:55 AM 86.5 °F 95.5 °F 74.7 °F 68% 29.95 in 10.0 mi South 12.7 mph - N/A   Clear
9:15 AM 87.3 °F 94.9 °F 73.4 °F 63% 29.95 in 10.0 mi SSW 13.8 mph - N/A   Clear
9:35 AM 87.1 °F 95.4 °F 73.9 °F 65% 29.97 in 10.0 mi South 8.1 mph - N/A   Clear
9:55 AM 87.3 °F 95.3 °F 73.9 °F 64% 29.97 in 10.0 mi South 5.8 mph - N/A   Clear
10:15 AM 87.6 °F 96.2 °F 73.9 °F 64% 29.97 in 10.0 mi WSW 4.6 mph - N/A   Scattered Clouds
10:35 AM 88.0 °F 95.1 °F 72.7 °F 60% 29.96 in 10.0 mi South 6.9 mph - N/A   Clear
10:55 AM 89.1 °F 96.0 °F 72.0 °F 57% 29.97 in 10.0 mi SSW 4.6 mph - N/A   Clear
11:15 AM 89.6 °F 96.2 °F 71.6 °F 55% 29.97 in 10.0 mi SW 5.8 mph - N/A   Clear
11:35 AM 89.4 °F 95.8 °F 71.1 °F 55% 29.97 in 10.0 mi SSW 5.8 mph - N/A   Clear
11:55 AM 90.7 °F 96.9 °F 71.1 °F 52% 29.96 in 10.0 mi SSW 4.6 mph - N/A   Clear
12:15 PM 92.3 °F 98.6 °F 70.5 °F 49% 29.96 in 10.0 mi SW 4.6 mph - N/A   Clear
12:35 PM 93.4 °F 98.6 °F 69.3 °F 45% 29.95 in 10.0 mi Calm Calm - N/A   Clear
1:15 PM 93.6 °F 101.9 °F 72.1 °F 50% 29.93 in 10.0 mi SSE 10.4 mph 18.4 mph N/A   Scattered Clouds
1:35 PM 94.3 °F 102.2 °F 72.0 °F 48% 29.93 in 10.0 mi SSE 10.4 mph 18.4 mph N/A   Scattered Clouds
1:55 PM 94.1 °F 103.1 °F 73.0 °F 50% 29.92 in 10.0 mi SSE 11.5 mph 17.3 mph N/A   Scattered Clouds
2:15 PM 94.5 °F 103.9 °F 73.0 °F 50% 29.91 in 10.0 mi SSE 11.5 mph - N/A   Clear
2:35 PM 94.6 °F 104.4 °F 73.2 °F 50% 29.90 in 10.0 mi SE 12.7 mph - N/A   Clear
2:55 PM 94.5 °F 103.9 °F 73.2 °F 50% 29.89 in 10.0 mi SE 13.8 mph 19.6 mph N/A   Clear
3:15 PM 94.3 °F 103.5 °F 72.9 °F 50% 29.89 in 10.0 mi SSE 11.5 mph 16.1 mph N/A   Clear
3:35 PM 94.1 °F 103.1 °F 72.7 °F 50% 29.88 in 10.0 mi SSE 13.8 mph - N/A   Clear
3:55 PM 93.9 °F 102.7 °F 72.9 °F 50% 29.87 in 10.0 mi SSE 13.8 mph - N/A   Clear
4:15 PM 93.6 °F 101.9 °F 72.3 °F 50% 29.87 in 10.0 mi SSE 15.0 mph - N/A   Clear
4:35 PM 93.6 °F 100.7 °F 71.4 °F 48% 29.86 in 10.0 mi SSE 16.1 mph - N/A   Clear
4:55 PM 93.0 °F 100.1 °F 71.1 °F 49% 29.85 in 10.0 mi SSE 16.1 mph - N/A   Clear
5:15 PM 92.5 °F 99.0 °F 71.1 °F 49% 29.85 in 10.0 mi SSE 17.3 mph - N/A   Clear
5:35 PM 92.3 °F 98.6 °F 70.5 °F 49% 29.84 in 10.0 mi SE 17.3 mph - N/A   Clear
5:55 PM 91.6 °F 98.8 °F 71.8 °F 52% 29.84 in 10.0 mi South 17.3 mph 21.9 mph N/A   Clear
6:15 PM 90.7 °F 98.5 °F 72.3 °F 55% 29.84 in 10.0 mi SSE 16.1 mph - N/A   Clear
6:35 PM 89.8 °F 98.1 °F 73.2 °F 58% 29.84 in 10.0 mi SSE 17.3 mph 21.9 mph N/A   Clear
6:55 PM 89.1 °F 98.0 °F 74.1 °F 61% 29.84 in 10.0 mi SSE 16.1 mph 23.0 mph N/A   Clear
7:15 PM 88.3 °F 97.4 °F 74.5 °F 63% 29.84 in 10.0 mi SSE 15.0 mph 20.7 mph N/A   Clear
7:35 PM 87.4 °F 96.2 °F 74.3 °F 65% 29.84 in 10.0 mi SSE 17.3 mph - N/A   Clear
7:55 PM 86.5 °F 95.5 °F 74.8 °F 68% 29.84 in 10.0 mi South 16.1 mph - N/A   Clear
8:15 PM 85.5 °F 94.6 °F 75.4 °F 72% 29.84 in 10.0 mi South 12.7 mph 20.7 mph N/A   Clear
8:35 PM 84.7 °F 93.2 °F 75.2 °F 73% 29.84 in 10.0 mi SSE 11.5 mph - N/A   Clear
8:55 PM 84.2 °F 91.9 °F 74.7 °F 73% 29.84 in 10.0 mi South 11.5 mph - N/A   Clear
9:15 PM 83.8 °F 91.1 °F 74.5 °F 73% 29.85 in 10.0 mi South 10.4 mph - N/A   Clear
9:35 PM 83.7 °F 91.0 °F 74.7 °F 74% 29.85 in 10.0 mi South 12.7 mph 18.4 mph N/A   Clear
9:55 PM 83.5 °F 90.9 °F 74.8 °F 75% 29.85 in 10.0 mi South 10.4 mph - N/A   Clear
10:15 PM 83.7 °F 91.0 °F 74.5 °F 74% 29.85 in 10.0 mi South 10.4 mph 16.1 mph N/A   Clear
10:35 PM 83.7 °F 90.7 °F 74.1 °F 73% 29.85 in 10.0 mi South 10.4 mph - N/A   Clear
10:55 PM 83.7 °F 91.0 °F 74.7 °F 74% 29.85 in 10.0 mi South 9.2 mph - N/A   Clear
11:15 PM 83.5 °F 91.2 °F 75.0 °F 76% 29.85 in 10.0 mi South 10.4 mph - N/A   Clear
11:35 PM 83.3 °F 90.8 °F 75.2 °F 76% 29.86 in 10.0 mi South 11.5 mph - N/A   Clear
11:55 PM 83.3 °F 90.8 °F 75.0 °F 76% 29.85 in 10.0 mi South 11.5 mph 16.1 mph N/A   Clear